tititudorancea.com
Station Historical Data
Daily Summary for Nil La, TWC- Units:  English    Metric   Both
« Previous Day
Next Day »
Daily Weekly Monthly Yearly Custom
  High: Low: Average:
Temperature: TemperatureF °F 36.7 °F 46.2 °F
Dew Point: DewpointF °F 34.9 °F 41.2 °F
Humidity: Humidity % 49 % 84 %
Wind Speed: WindSpeedMPH mph 0 mph 1.4 mph
Wind Gust: WindSpeedGustMPH mph - -
Wind:- - SSW
Pressure: PressureIn in 30.02 in -
Precipitation: 0 in    
Historical Graphs
 
 
Ararat weather Find more about Weather in Ararat, AU


 



 


Tabular Data for Nil La, TWC-
Time Temperature Dew Point Pressure Wind Wind Speed Wind Gust Humidity Rainfall Rate (Hourly)
TemperatureF °F DewpointF °F PressureIn in Calm     Humidity % HourlyPrecipIn in
00:04 44.7 °F 41.9 °F 30.12 in Calm     90 % 0 in
00:09 44.9 °F 42.1 °F 30.12 in Calm     90 % 0 in
00:14 45 °F 42.2 °F 30.12 in Calm     90 % 0 in
00:19 45.1 °F 42.3 °F 30.12 in Calm     90 % 0 in
00:24 45.3 °F 42.5 °F 30.12 in Calm     90 % 0 in
00:29 45.4 °F 42.6 °F 30.12 in Calm     90 % 0 in
00:34 45.5 °F 42.7 °F 30.12 in Calm     90 % 0 in
00:39 45.6 °F 42.8 °F 30.12 in Calm     90 % 0 in
00:44 45.7 °F 42.9 °F 30.12 in Calm     90 % 0 in
00:49 45.9 °F 43.1 °F 30.12 in Calm     90 % 0 in
00:54 45.9 °F 43.1 °F 30.12 in Calm     90 % 0 in
00:59 45.9 °F 43.1 °F 30.12 in Calm     90 % 0 in
01:04 45.9 °F 43.1 °F 30.11 in Calm     90 % 0 in
01:09 45.8 °F 43 °F 30.11 in Calm     90 % 0 in
01:14 45.7 °F 42.6 °F 30.11 in Calm     89 % 0 in
01:19 45.4 °F 42.3 °F 30.11 in Calm     89 % 0 in
01:24 45.2 °F 42.2 °F 30.11 in Calm     89 % 0 in
01:29 45 °F 42 °F 30.11 in Calm     89 % 0 in
01:34 44.8 °F 41.8 °F 30.11 in Calm     89 % 0 in
01:39 44.6 °F 41.8 °F 30.11 in Calm     90 % 0 in
01:44 44.3 °F 41.6 °F 30.11 in Calm     90 % 0 in
01:49 44.1 °F 41.4 °F 30.10 in Calm     90 % 0 in
01:54 44.1 °F 41.4 °F 30.10 in Calm     90 % 0 in
01:59 44.2 °F 41.7 °F 30.10 in Calm     91 % 0 in
02:04 44.2 °F 41.7 °F 30.10 in Calm     91 % 0 in
02:05 45.9 °F 43.1 °F 30.11 in Calm   7 mph 90 % 0 in
02:09 44.2 °F 41.7 °F 30.10 in Calm     91 % 0 in
02:10 45.9 °F 43.1 °F 30.11 in Calm     90 % 0 in
02:14 44.1 °F 41.6 °F 30.10 in Calm     91 % 0 in
02:15 45.8 °F 43 °F 30.11 in Calm     90 % 0 in
02:19 44 °F 41.5 °F 30.10 in Calm     91 % 0 in
02:20 45.6 °F 42.5 °F 30.11 in Calm     89 % 0 in
02:24 43.8 °F 41.3 °F 30.10 in Calm     91 % 0 in
02:25 45.4 °F 42.3 °F 30.11 in Calm     89 % 0 in
02:29 43.7 °F 41.2 °F 30.10 in Calm     91 % 0 in
02:30 45.1 °F 42.3 °F 30.11 in Calm     90 % 0 in
02:34 43.7 °F 41.2 °F 30.10 in Calm     91 % 0 in
02:35 44.9 °F 41.9 °F 30.11 in Calm     89 % 0 in
02:39 43.6 °F 41.1 °F 30.09 in Calm     91 % 0 in
02:40 44.7 °F 41.9 °F 30.11 in Calm     90 % 0 in
02:44 43.5 °F 41 °F 30.09 in Calm     91 % 0 in
02:45 44.5 °F 41.5 °F 30.11 in Calm     89 % 0 in
02:49 43.4 °F 40.9 °F 30.09 in Calm     91 % 0 in
02:50 44.2 °F 41.5 °F 30.11 in Calm     90 % 0 in
02:54 43.2 °F 40.8 °F 30.09 in Calm     91 % 0 in
02:55 44.1 °F 41.4 °F 30.10 in Calm     90 % 0 in
02:59 43 °F 40.6 °F 30.09 in Calm     91 % 0 in
03:00 44.2 °F 41.7 °F 30.10 in Calm     91 % 0 in
03:04 42.8 °F 40.4 °F 30.09 in Calm     91 % 0 in
03:05 44.2 °F 41.7 °F 30.10 in Calm     91 % 0 in
03:09 42.8 °F 40.6 °F 30.09 in Calm     92 % 0 in
03:10 44.2 °F 41.7 °F 30.10 in Calm     91 % 0 in
03:14 42.8 °F 40.6 °F 30.09 in Calm     92 % 0 in
03:15 44.2 °F 41.7 °F 30.10 in Calm     91 % 0 in
03:19 42.6 °F 40.2 °F 30.09 in Calm     91 % 0 in
03:20 44.1 °F 41.6 °F 30.10 in Calm     91 % 0 in
03:24 42.3 °F 39.9 °F 30.09 in Calm     91 % 0 in
03:25 44 °F 41.5 °F 30.10 in Calm     91 % 0 in
03:29 42.1 °F 39.7 °F 30.09 in Calm     91 % 0 in
03:30 43.7 °F 41.2 °F 30.10 in Calm     91 % 0 in
03:34 41.9 °F 39.5 °F 30.09 in Calm     91 % 0 in
03:35 43.7 °F 41.2 °F 30.10 in Calm     91 % 0 in
03:39 41.6 °F 39.2 °F 30.09 in Calm     91 % 0 in
03:40 43.6 °F 41.1 °F 30.10 in Calm     91 % 0 in
03:44 41.4 °F 39 °F 30.09 in Calm     91 % 0 in
03:45 43.6 °F 41.1 °F 30.09 in Calm     91 % 0 in
03:49 41.1 °F 38.7 °F 30.09 in Calm     91 % 0 in
03:50 43.5 °F 41 °F 30.09 in Calm     91 % 0 in
03:54 40.9 °F 40.1 °F 30.09 in Calm     97 % 0 in
03:55 43.3 °F 40.8 °F 30.09 in Calm     91 % 0 in
03:59 40.6 °F 38.5 °F 30.09 in Calm     92 % 0 in
04:00 43.1 °F 40.7 °F 30.09 in Calm     91 % 0 in
04:04 40.5 °F 38.4 °F 30.09 in Calm     92 % 0 in
04:05 42.9 °F 40.5 °F 30.09 in Calm     91 % 0 in
04:09 40.4 °F 38.3 °F 30.09 in Calm     92 % 0 in
04:10 42.8 °F 40.4 °F 30.09 in Calm     91 % 0 in
04:14 40.2 °F 38.1 °F 30.09 in Calm     92 % 0 in
04:15 42.8 °F 40.6 °F 30.09 in Calm     92 % 0 in
04:19 40 °F 37.9 °F 30.09 in Calm     92 % 0 in
04:20 42.8 °F 40.4 °F 30.09 in Calm     91 % 0 in
04:24 39.8 °F 37.7 °F 30.09 in Calm     92 % 0 in
04:25 42.5 °F 40.1 °F 30.09 in Calm     91 % 0 in
04:29 39.8 °F 37.7 °F 30.09 in Calm     92 % 0 in
04:30 42.3 °F 39.9 °F 30.09 in Calm     91 % 0 in
04:34 39.7 °F 37.6 °F 30.09 in Calm     92 % 0 in
04:35 42 °F 39.6 °F 30.09 in Calm     91 % 0 in
04:39 39.5 °F 37.4 °F 30.09 in Calm     92 % 0 in
04:40 41.7 °F 39.3 °F 30.09 in Calm     91 % 0 in
04:44 39.5 °F 37.4 °F 30.09 in SSW 2.3 mph 0.6 mph 92 % 0 in
04:45 41.5 °F 39.1 °F 30.09 in Calm     91 % 0 in
04:49 39.4 °F 37.3 °F 30.09 in Calm     92 % 0 in
04:50 41.3 °F 38.9 °F 30.09 in Calm     91 % 0 in
04:54 39.2 °F 37.1 °F 30.09 in Calm     92 % 0 in
04:55 41 °F 38.6 °F 30.09 in Calm     91 % 0 in
04:59 38.9 °F 36.8 °F 30.09 in Calm     92 % 0 in
05:00 40.8 °F 38.4 °F 30.09 in Calm     91 % 0 in
05:04 38.7 °F 36.6 °F 30.09 in Calm     92 % 0 in
05:05 40.6 °F 38.5 °F 30.09 in Calm     92 % 0 in
05:09 38.7 °F 36.6 °F 30.09 in Calm     92 % 0 in
05:10 40.5 °F 38.4 °F 30.09 in Calm     92 % 0 in
05:14 38.6 °F 36.5 °F 30.09 in Calm     92 % 0 in
05:15 40.3 °F 38.2 °F 30.09 in Calm     92 % 0 in
05:19 38.6 °F 36.8 °F 30.09 in Calm     93 % 0 in
05:20 40.2 °F 38.1 °F 30.09 in Calm     92 % 0 in
05:24 38.6 °F 36.8 °F 30.09 in Calm     93 % 0 in
05:25 39.9 °F 37.8 °F 30.09 in Calm     92 % 0 in
05:29 38.5 °F 36.4 °F 30.09 in Calm     92 % 0 in
05:30 39.8 °F 37.7 °F 30.09 in Calm     92 % 0 in
05:34 38.2 °F 36.1 °F 30.09 in Calm     92 % 0 in
05:35 39.7 °F 37.6 °F 30.09 in Calm     92 % 0 in
05:39 38 °F 35.9 °F 30.09 in Calm     92 % 0 in
05:40 39.6 °F 37.5 °F 30.09 in Calm     92 % 0 in
05:44 37.8 °F 35.7 °F 30.09 in Calm     92 % 0 in
05:45 39.5 °F 37.4 °F 30.09 in Calm     92 % 0 in
05:49 37.7 °F 35.6 °F 30.10 in Calm     92 % 0 in
05:50 39.5 °F 37.4 °F 30.09 in Calm   2 mph 92 % 0 in
05:54 37.5 °F 35.4 °F 30.10 in Calm     92 % 0 in
05:55 39.4 °F 37.3 °F 30.09 in Calm     92 % 0 in
05:59 37.3 °F 35.5 °F 30.10 in Calm     93 % 0 in
06:00 39.1 °F 37 °F 30.09 in Calm     92 % 0 in
06:04 37.2 °F 35.4 °F 30.10 in Calm     93 % 0 in
06:05 38.8 °F 36.7 °F 30.09 in Calm     92 % 0 in
06:09 37.1 °F 35.3 °F 30.09 in Calm     93 % 0 in
06:10 38.7 °F 36.6 °F 30.09 in Calm     92 % 0 in
06:14 37.2 °F 35.4 °F 30.09 in Calm     93 % 0 in
06:15 38.6 °F 36.5 °F 30.09 in Calm     92 % 0 in
06:19 37.2 °F 35.4 °F 30.09 in Calm     93 % 0 in
06:20 38.6 °F 36.5 °F 30.09 in Calm     92 % 0 in
06:24 37 °F 35.2 °F 30.09 in Calm     93 % 0 in
06:25 38.6 °F 36.8 °F 30.09 in Calm     93 % 0 in
06:29 36.9 °F 35.1 °F 30.09 in Calm     93 % 0 in
06:30 38.6 °F 36.8 °F 30.09 in Calm     93 % 0 in
06:34 36.9 °F 35.1 °F 30.09 in Calm     93 % 0 in
06:35 38.4 °F 36.3 °F 30.09 in Calm     92 % 0 in
06:39 36.9 °F 35.1 °F 30.09 in Calm     93 % 0 in
06:40 38.1 °F 36 °F 30.09 in Calm     92 % 0 in
06:44 36.9 °F 35.1 °F 30.09 in Calm     93 % 0 in
06:45 37.9 °F 36.1 °F 30.09 in Calm     93 % 0 in
06:49 36.9 °F 35.1 °F 30.09 in Calm     93 % 0 in
06:50 37.8 °F 35.7 °F 30.09 in Calm     92 % 0 in
06:54 36.7 °F 34.9 °F 30.10 in Calm     93 % 0 in
06:55 37.6 °F 35.5 °F 30.10 in Calm     92 % 0 in
06:59 36.8 °F 35 °F 30.10 in Calm     93 % 0 in
07:00 37.4 °F 35.3 °F 30.10 in Calm     92 % 0 in
07:04 36.8 °F 35 °F 30.11 in Calm     93 % 0 in
07:05 37.3 °F 35.5 °F 30.10 in Calm     93 % 0 in
07:09 37 °F 35.4 °F 30.11 in SSW 1.2 mph   94 % 0 in
07:10 37.1 °F 35.3 °F 30.09 in Calm     93 % 0 in
07:14 37.2 °F 35.6 °F 30.10 in SSW 1.2 mph   94 % 0 in
07:15 37.2 °F 35.4 °F 30.09 in Calm     93 % 0 in
07:19 37.6 °F 36 °F 30.11 in Calm   0.1 mph 94 % 0 in
07:20 37.2 °F 35.4 °F 30.10 in Calm     93 % 0 in
07:24 38 °F 36.4 °F 30.11 in Calm     94 % 0 in
07:25 37.1 °F 35.3 °F 30.09 in Calm     93 % 0 in
07:29 38.4 °F 36.8 °F 30.11 in Calm     94 % 0 in
07:30 37 °F 35.2 °F 30.09 in Calm     93 % 0 in
07:34 38.8 °F 37.2 °F 30.11 in Calm     94 % 0 in
07:35 36.9 °F 35.1 °F 30.09 in Calm     93 % 0 in
07:39 39.3 °F 38 °F 30.11 in Calm     95 % 0 in
07:40 36.9 °F 35.1 °F 30.09 in Calm     93 % 0 in
07:44 39.9 °F 38.6 °F 30.11 in Calm     95 % 0 in
07:45 36.9 °F 35.1 °F 30.09 in Calm     93 % 0 in
07:49 41.2 °F 40.1 °F 30.11 in Calm     96 % 0 in
07:50 36.9 °F 35.1 °F 30.09 in Calm     93 % 0 in
07:54 43 °F 41.9 °F 30.11 in Calm     96 % 0 in
07:55 36.8 °F 35 °F 30.10 in Calm     93 % 0 in
07:59 44.3 °F 43.2 °F 30.11 in Calm     96 % 0 in
08:00 36.8 °F 35 °F 30.10 in Calm     93 % 0 in
08:04 45.1 °F 44 °F 30.11 in Calm     96 % 0 in
08:05 36.8 °F 35 °F 30.10 in Calm     93 % 0 in
08:09 45.9 °F 44.8 °F 30.11 in Calm     96 % 0 in
08:10 36.9 °F 35.1 °F 30.10 in Calm     93 % 0 in
08:14 46.5 °F 45.1 °F 30.11 in SSW 2.3 mph   95 % 0 in
08:15 37.1 °F 35.5 °F 30.11 in Calm   1 mph 94 % 0 in
08:19 46.6 °F 45 °F 30.11 in SSW 3.5 mph 2 mph 94 % 0 in
08:20 37.3 °F 35.7 °F 30.11 in Calm   1 mph 94 % 0 in
08:24 47 °F 45.4 °F 30.12 in SSW 1.2 mph   94 % 0 in
08:25 37.7 °F 36.1 °F 30.11 in Calm   2 mph 94 % 0 in
08:29 47.7 °F 46.1 °F 30.12 in SSW 3.5 mph 1.6 mph 94 % 0 in
08:30 38.2 °F 36.6 °F 30.11 in Calm     94 % 0 in
08:34 48.3 °F 46.7 °F 30.12 in SSW 2 mph 1.5 mph 94 % 0 in
08:35 38.5 °F 36.9 °F 30.11 in Calm     94 % 0 in
08:39 49.1 °F 47.2 °F 30.12 in Calm     93 % 0 in
08:40 39 °F 37.7 °F 30.11 in Calm     95 % 0 in
08:44 49.1 °F 46.9 °F 30.12 in Calm     92 % 0 in
08:45 39.5 °F 38.2 °F 30.11 in Calm     95 % 0 in
08:49 49.6 °F 47.1 °F 30.12 in Calm   0.2 mph 91 % 0 in
08:50 40.3 °F 39 °F 30.11 in Calm     95 % 0 in
08:54 50.6 °F 48.1 °F 30.13 in SSW 2.3 mph 1.5 mph 91 % 0 in
08:55 41.9 °F 40.8 °F 30.11 in Calm     96 % 0 in
08:59 51.3 °F 47.9 °F 30.13 in SSW 1.2 mph 0.2 mph 88 % 0 in
09:00 43.5 °F 42.4 °F 30.11 in Calm     96 % 0 in
09:04 52.1 °F 48.7 °F 30.13 in SSW 3.5 mph 1 mph 88 % 0 in
09:05 44.6 °F 43.5 °F 30.11 in Calm     96 % 0 in
09:09 52.5 °F 48.1 °F 30.13 in SSW 2.3 mph 0.9 mph 85 % 0 in
09:10 45.4 °F 44.3 °F 30.11 in Calm     96 % 0 in
09:14 53.1 °F 48.1 °F 30.13 in SSW 2.3 mph 1.3 mph 83 % 0 in
09:15 46.3 °F 44.9 °F 30.11 in Calm     95 % 0 in
09:19 53.7 °F 48 °F 30.13 in SSW 2.3 mph 0.6 mph 81 % 0 in
09:20 46.6 °F 45 °F 30.11 in Calm   2 mph 94 % 0 in
09:24 54.3 °F 47.6 °F 30.13 in SSW 3.5 mph 2.2 mph 78 % 0 in
09:25 46.7 °F 45.1 °F 30.11 in SSW 1 mph 3 mph 94 % 0 in
09:29 54.5 °F 47.4 °F 30.13 in SSW 2 mph 0.7 mph 77 % 0 in
09:30 47.2 °F 45.6 °F 30.12 in SSW 1 mph 2 mph 94 % 0 in
09:34 55.1 °F 48.4 °F 30.13 in SSW 2.3 mph 1.6 mph 78 % 0 in
09:35 47.9 °F 46.3 °F 30.12 in SSW 1 mph 3 mph 94 % 0 in
09:39 55.6 °F 47.4 °F 30.13 in SSW 4 mph 3.5 mph 74 % 0 in
09:40 48.7 °F 47.1 °F 30.12 in SSW 2 mph 3 mph 94 % 0 in
09:44 55.1 °F 46.2 °F 30.13 in SSW 5.8 mph 4.3 mph 72 % 0 in
09:45 49 °F 46.5 °F 30.12 in Calm   1 mph 91 % 0 in
09:49 54.5 °F 46 °F 30.13 in SSW 3.5 mph 1.8 mph 73 % 0 in
09:50 49.2 °F 46.7 °F 30.12 in Calm     91 % 0 in
09:54 54.3 °F 45.8 °F 30.13 in SSW 4.6 mph 2.6 mph 73 % 0 in
09:55 49.9 °F 47.4 °F 30.13 in SSW 1 mph 3 mph 91 % 0 in
09:59 54.1 °F 46 °F 30.13 in SSW 4.6 mph 2.6 mph 74 % 0 in
10:00 50.9 °F 48.1 °F 30.13 in SSW 1 mph 3 mph 90 % 0 in
10:04 54 °F 45.9 °F 30.13 in SSW 4 mph 1.9 mph 74 % 0 in
10:05 51.5 °F 48.1 °F 30.13 in SSW 1 mph 3 mph 88 % 0 in
10:09 54.4 °F 45.2 °F 30.13 in SSW 3.5 mph 0.7 mph 71 % 0 in
10:10 52.2 °F 48.1 °F 30.13 in SSW 1 mph 4 mph 86 % 0 in
10:14 54.9 °F 45.3 °F 30.13 in SSW 7 mph 4.7 mph 70 % 0 in
10:15 52.8 °F 48.4 °F 30.13 in Calm   3 mph 85 % 0 in
10:19 55 °F 45 °F 30.13 in SSW 3.5 mph 2 mph 69 % 0 in
10:20 53.3 °F 48.3 °F 30.13 in Calm   2 mph 83 % 0 in
10:24 55.3 °F 44.9 °F 30.12 in SSW 2.3 mph 1.2 mph 68 % 0 in
10:25 53.9 °F 47.9 °F 30.13 in SSW 1 mph 2 mph 80 % 0 in
10:29 56.3 °F 45.9 °F 30.12 in SSW 4 mph 2.2 mph 68 % 0 in
10:30 54.3 °F 47.2 °F 30.13 in SSW 1 mph 4 mph 77 % 0 in
10:34 57.4 °F 46.1 °F 30.12 in SSW 6.9 mph 3.4 mph 66 % 0 in
10:35 54.6 °F 47.5 °F 30.13 in Calm   3 mph 77 % 0 in
10:39 57.5 °F 46.6 °F 30.12 in SSW 2.3 mph 1.2 mph 67 % 0 in
10:40 55.5 °F 47.7 °F 30.13 in SSW 3 mph 6 mph 75 % 0 in
10:44 57.1 °F 44.6 °F 30.12 in SSW 4.6 mph 1.9 mph 63 % 0 in
10:45 55.6 °F 46.7 °F 30.13 in SSW 5 mph 6 mph 72 % 0 in
10:49 56.8 °F 45.2 °F 30.12 in SSW 4.6 mph 4.3 mph 65 % 0 in
10:50 54.8 °F 46.3 °F 30.13 in SSW 3 mph 6 mph 73 % 0 in
10:54 57 °F 44.5 °F 30.12 in SSW 2.3 mph 1.1 mph 63 % 0 in
10:55 54.4 °F 46.3 °F 30.14 in SSW 3 mph 4 mph 74 % 0 in
10:59 57.6 °F 44.7 °F 30.12 in SSW 2.3 mph 0.3 mph 62 % 0 in
11:00 54.2 °F 46.1 °F 30.13 in SSW 3 mph 6 mph 74 % 0 in
11:04 58.3 °F 44.9 °F 30.12 in SSW 4.6 mph 2.8 mph 61 % 0 in
11:05 54 °F 45.9 °F 30.13 in SSW 3 mph 5 mph 74 % 0 in
11:09 58.6 °F 45.2 °F 30.12 in SSW 3.5 mph 3.1 mph 61 % 0 in
11:14 58.6 °F 45.2 °F 30.12 in SSW 3.5 mph 2.5 mph 61 % 0 in
11:19 58 °F 44.2 °F 30.12 in SSW 10 mph 5.6 mph 60 % 0 in
11:24 57.3 °F 44 °F 30.12 in SSW 6.9 mph 1.6 mph 61 % 0 in
11:29 57.9 °F 45 °F 30.11 in SSW 3.5 mph 2.7 mph 62 % 0 in
11:34 58.6 °F 44.3 °F 30.11 in SSW 3.5 mph 2.5 mph 59 % 0 in
11:39 58.9 °F 45.9 °F 30.11 in SSW 8.1 mph 3.6 mph 62 % 0 in
11:44 58.4 °F 44.1 °F 30.11 in SW 8.1 mph 4.2 mph 59 % 0 in
11:49 58.4 °F 43.7 °F 30.11 in SW 6.9 mph 2.7 mph 58 % 0 in
11:54 58.8 °F 44 °F 30.11 in SW 6.9 mph 4.6 mph 58 % 0 in
11:59 59.4 °F 45.1 °F 30.11 in SW 5 mph 4.2 mph 59 % 0 in
12:04 60.2 °F 44.9 °F 30.11 in WSW 6.9 mph 5.2 mph 57 % 0 in
12:09 60.3 °F 44.5 °F 30.10 in WSW 5.8 mph 4.1 mph 56 % 0 in
12:14 60.6 °F 44.8 °F 30.10 in WSW 6 mph 6.8 mph 56 % 0 in
12:19 60.2 °F 44.9 °F 30.10 in WSW 5.8 mph 2.7 mph 57 % 0 in
12:24 60 °F 43.8 °F 30.10 in SW 5.8 mph 3 mph 55 % 0 in
12:29 60.6 °F 44.3 °F 30.09 in SW 3.5 mph 0.9 mph 55 % 0 in
12:34 61 °F 44.2 °F 30.09 in WSW 4 mph 2.3 mph 54 % 0 in
12:39 61 °F 44.7 °F 30.09 in WSW 4.6 mph 2.3 mph 55 % 0 in
12:44 61.5 °F 44.2 °F 30.09 in WSW 2.3 mph 1.9 mph 53 % 0 in
12:49 61.7 °F 44.9 °F 30.09 in WSW 5 mph 2.8 mph 54 % 0 in
12:54 61.6 °F 45.3 °F 30.08 in SSW 9.2 mph 6.7 mph 55 % 0 in
12:59 60.5 °F 44.2 °F 30.08 in SSW 8.1 mph 4.2 mph 55 % 0 in
13:04 60.1 °F 44.8 °F 30.08 in SSW 9.2 mph 7.3 mph 57 % 0 in
13:09 60.2 °F 44.4 °F 30.08 in SSW 4 mph 4.4 mph 56 % 0 in
13:14 60.9 °F 45.6 °F 30.07 in SSW 6.9 mph 5 mph 57 % 0 in
14:04 63.1 °F 44.7 °F 30.05 in South 8.1 mph 5.6 mph 51 % 0 in
14:09 62.9 °F 45.5 °F 30.05 in SSE 4.6 mph 4.4 mph 53 % 0 in
14:14 63.7 °F 45.2 °F 30.05 in SSE 5.8 mph 4.1 mph 51 % 0 in
14:19 64.1 °F 45.1 °F 30.05 in SSE 6 mph 5.8 mph 50 % 0 in
14:24 63.6 °F 44.1 °F 30.05 in SSE 6.9 mph 4.3 mph 49 % 0 in
14:29 63.4 °F 44.9 °F 30.04 in SSE 7 mph 6.1 mph 51 % 0 in
14:34 63.2 °F 44.8 °F 30.04 in SSE 5.8 mph 2.2 mph 51 % 0 in
14:39 63.1 °F 44.7 °F 30.04 in SSE 8.1 mph 7 mph 51 % 0 in
14:44 63.6 °F 45.1 °F 30.04 in SSE 8.1 mph 1.9 mph 51 % 0 in
14:49 63.8 °F 44.8 °F 30.04 in SSE 9.2 mph 5.1 mph 50 % 0 in
14:52 63.9 °F 44.4 °F 30.04 in SSE 4.6 mph 2.6 mph 49 % 0 in
15:24 63.3 °F 44.9 °F 30.02 in SSE 4.6 mph 5.3 mph 51 % 0 in
15:29 63.8 °F 45.3 °F 30.02 in SSE 4.6 mph 4.5 mph 51 % 0 in
15:34 64.2 °F 45.2 °F 30.02 in SSE 4.6 mph 5 mph 50 % 0 in
15:39 64.5 °F 44.9 °F 30.02 in SSE 4 mph 2.6 mph 49 % 0 in
Ararat Weather
Compliments of Weather Underground - 2.25 mb
Click here to send mail.


ABOUT

Live weather data from Ararat, Victoria, Australia, 3377
Data uploaded from Cumulus every 5 minutes to Weather Underground.
This site then downloads the raw data for formatting and display.
Metric and imperial data can be displayed. Graphs and historical data available.
Includes Sun and Moon times and rain image live from BOM.

Check out Ararat Weather on Facebook, Twitter and Google +

Help support ongoing costs by checking out the ads





Follow @AraratWeather